Estación Meteorológica de la Universidad de Murcia
Estación Meteorológica de la Universidad de Murcia
Universidad de Murcia
 

Temperatura y Humedad del sueloTemperatura y Humedad del suelo

 

Temperatura del suelo máxima: 38 ºC a las 17:28:00 del día 17/09/2020
Temperatura del suelo mínima: 19,9 ºC a las 07:33:00 del día 17/09/2020
Humedad del suelo máxima: 48,4 % a las 00:43:00 del día 17/09/2020
Humedad del suelo mínima: 46,5 % a las 09:31:00 del día 17/09/2020

||Temperatura del suelo máxima últimos meses|| ---- ||Temperatura del suelo mínima últimos meses||

----||Humedad del suelo máxima últimos meses|| ---- ||Humedad del suelo mínima últimos meses||


Temperatura del suelo máxima

  • 1 - 38 ºC del día 17/09/2020
  • 2 - 38 ºC del día 16/09/2020
  • 3 - 38 ºC del día 15/09/2020
  • 4 - 38 ºC del día 14/09/2020
  • 5 - 38 ºC del día 13/09/2020
  • 6 - 38 ºC del día 12/09/2020
  • 7 - 38 ºC del día 11/09/2020
  • 8 - 38 ºC del día 10/09/2020
  • 9 - 38 ºC del día 09/09/2020
  • 10 - 38 ºC del día 08/09/2020
  • 11 - 38 ºC del día 07/09/2020
  • 12 - 38 ºC del día 06/09/2020
  • 13 - 38 ºC del día 05/09/2020
  • 14 - 38 ºC del día 04/09/2020
  • 15 - 38 ºC del día 03/09/2020
  • 16 - 38 ºC del día 02/09/2020
  • 17 - 38 ºC del día 01/09/2020
  • 18 - 38 ºC del día 31/08/2020
  • 19 - 38 ºC del día 30/08/2020
  • 20 - 38 ºC del día 29/08/2020
  • 21 - 38 ºC del día 28/08/2020
  • 22 - 38 ºC del día 27/08/2020
  • 23 - 38 ºC del día 26/08/2020
  • 24 - 38 ºC del día 25/08/2020
  • 25 - 38 ºC del día 24/08/2020
  • 26 - 38 ºC del día 23/08/2020
  • 27 - 38 ºC del día 22/08/2020
  • 28 - 38 ºC del día 21/08/2020
  • 29 - 38 ºC del día 20/08/2020
  • 30 - 38 ºC del día 19/08/2020
  • 31 - 38 ºC del día 18/08/2020
  • 32 - 38 ºC del día 17/08/2020
  • 33 - 38 ºC del día 16/08/2020
  • 34 - 38 ºC del día 15/08/2020
  • 35 - 38 ºC del día 14/08/2020
  • 36 - 38 ºC del día 13/08/2020
  • 37 - 38 ºC del día 12/08/2020
  • 38 - 38 ºC del día 11/08/2020
  • 39 - 38 ºC del día 10/08/2020
  • 40 - 38 ºC del día 09/08/2020
  • 41 - 38 ºC del día 08/08/2020
  • 42 - 38 ºC del día 07/08/2020
  • 43 - 38 ºC del día 06/08/2020
  • 44 - 38 ºC del día 05/08/2020
  • 45 - 38 ºC del día 04/08/2020
  • 46 - 38 ºC del día 03/08/2020
  • 47 - 38 ºC del día 02/08/2020
  • 48 - 38 ºC del día 01/08/2020
  • 49 - 38 ºC del día 31/07/2020
  • 50 - 38 ºC del día 30/07/2020
  • 51 - 38 ºC del día 29/07/2020
  • 52 - 38 ºC del día 28/07/2020
  • 53 - 38 ºC del día 27/07/2020
  • 54 - 38 ºC del día 26/07/2020
  • 55 - 38 ºC del día 25/07/2020
  • 56 - 38 ºC del día 24/07/2020
  • 57 - 38 ºC del día 23/07/2020
  • 58 - 35,4 ºC del día 22/07/2020
  • 59 - 35,3 ºC del día 21/07/2020
  • 60 - 36 ºC del día 20/07/2020

||Volver al inicio de la página||


Temperatura del suelo mínima

  • 1 - 19,9 ºC del día 17/09/2020
  • 2 - 19,9 ºC del día 16/09/2020
  • 3 - 19,9 ºC del día 15/09/2020
  • 4 - 19,9 ºC del día 14/09/2020
  • 5 - 19,9 ºC del día 13/09/2020
  • 6 - 19,9 ºC del día 12/09/2020
  • 7 - 19,9 ºC del día 11/09/2020
  • 8 - 19,9 ºC del día 10/09/2020
  • 9 - 19,9 ºC del día 09/09/2020
  • 10 - 19,9 ºC del día 08/09/2020
  • 11 - 19,9 ºC del día 07/09/2020
  • 12 - 19,9 ºC del día 06/09/2020
  • 13 - 19,9 ºC del día 05/09/2020
  • 14 - 19,9 ºC del día 04/09/2020
  • 15 - 19,9 ºC del día 03/09/2020
  • 16 - 19,9 ºC del día 02/09/2020
  • 17 - 19,9 ºC del día 01/09/2020
  • 18 - 19,9 ºC del día 31/08/2020
  • 19 - 19,9 ºC del día 30/08/2020
  • 20 - 19,9 ºC del día 29/08/2020
  • 21 - 19,9 ºC del día 28/08/2020
  • 22 - 19,9 ºC del día 27/08/2020
  • 23 - 19,9 ºC del día 26/08/2020
  • 24 - 19,9 ºC del día 25/08/2020
  • 25 - 19,9 ºC del día 24/08/2020
  • 26 - 19,9 ºC del día 23/08/2020
  • 27 - 19,9 ºC del día 22/08/2020
  • 28 - 19,9 ºC del día 21/08/2020
  • 29 - 19,9 ºC del día 20/08/2020
  • 30 - 19,9 ºC del día 19/08/2020
  • 31 - 19,9 ºC del día 18/08/2020
  • 32 - 19,9 ºC del día 17/08/2020
  • 33 - 19,9 ºC del día 16/08/2020
  • 34 - 19,9 ºC del día 15/08/2020
  • 35 - 19,9 ºC del día 14/08/2020
  • 36 - 19,9 ºC del día 13/08/2020
  • 37 - 19,9 ºC del día 12/08/2020
  • 38 - 19,9 ºC del día 11/08/2020
  • 39 - 19,9 ºC del día 10/08/2020
  • 40 - 19,9 ºC del día 09/08/2020
  • 41 - 19,9 ºC del día 08/08/2020
  • 42 - 19,9 ºC del día 07/08/2020
  • 43 - 19,9 ºC del día 06/08/2020
  • 44 - 19,9 ºC del día 05/08/2020
  • 45 - 19,9 ºC del día 04/08/2020
  • 46 - 19,9 ºC del día 03/08/2020
  • 47 - 19,9 ºC del día 02/08/2020
  • 48 - 19,9 ºC del día 01/08/2020
  • 49 - 19,9 ºC del día 31/07/2020
  • 50 - 19,9 ºC del día 30/07/2020
  • 51 - 19,9 ºC del día 29/07/2020
  • 52 - 19,9 ºC del día 28/07/2020
  • 53 - 19,9 ºC del día 27/07/2020
  • 54 - 19,9 ºC del día 26/07/2020
  • 55 - 19,9 ºC del día 25/07/2020
  • 56 - 19,9 ºC del día 24/07/2020
  • 57 - 19,9 ºC del día 23/07/2020
  • 58 - 21,6 ºC del día 22/07/2020
  • 59 - 20,7 ºC del día 21/07/2020
  • 60 - 22,1 ºC del día 20/07/2020

||Volver al inicio de la página||


Humedad del suelo máxima

  • 1 - 48,4 % del día 17/09/2020
  • 2 - 48,4 % del día 16/09/2020
  • 3 - 48,4 % del día 15/09/2020
  • 4 - 48,4 % del día 14/09/2020
  • 5 - 48,4 % del día 13/09/2020
  • 6 - 48,4 % del día 12/09/2020
  • 7 - 48,4 % del día 11/09/2020
  • 8 - 48,4 % del día 10/09/2020
  • 9 - 48,4 % del día 09/09/2020
  • 10 - 48,4 % del día 08/09/2020
  • 11 - 48,4 % del día 07/09/2020
  • 12 - 48,4 % del día 06/09/2020
  • 13 - 48,4 % del día 05/09/2020
  • 14 - 48,4 % del día 04/09/2020
  • 15 - 48,4 % del día 03/09/2020
  • 16 - 48,4 % del día 02/09/2020
  • 17 - 48,4 % del día 01/09/2020
  • 18 - 48,4 % del día 31/08/2020
  • 19 - 48,4 % del día 30/08/2020
  • 20 - 48,4 % del día 29/08/2020
  • 21 - 48,4 % del día 28/08/2020
  • 22 - 48,4 % del día 27/08/2020
  • 23 - 48,4 % del día 26/08/2020
  • 24 - 48,4 % del día 25/08/2020
  • 25 - 48,4 % del día 24/08/2020
  • 26 - 48,4 % del día 23/08/2020
  • 27 - 48,4 % del día 22/08/2020
  • 28 - 48,4 % del día 21/08/2020
  • 29 - 48,4 % del día 20/08/2020
  • 30 - 48,4 % del día 19/08/2020
  • 31 - 48,4 % del día 18/08/2020
  • 32 - 48,4 % del día 17/08/2020
  • 33 - 48,4 % del día 16/08/2020
  • 34 - 48,4 % del día 15/08/2020
  • 35 - 48,4 % del día 14/08/2020
  • 36 - 48,4 % del día 13/08/2020
  • 37 - 48,4 % del día 12/08/2020
  • 38 - 48,4 % del día 11/08/2020
  • 39 - 48,4 % del día 10/08/2020
  • 40 - 48,4 % del día 09/08/2020
  • 41 - 48,4 % del día 08/08/2020
  • 42 - 48,4 % del día 07/08/2020
  • 43 - 48,4 % del día 06/08/2020
  • 44 - 48,4 % del día 05/08/2020
  • 45 - 48,4 % del día 04/08/2020
  • 46 - 48,4 % del día 03/08/2020
  • 47 - 48,4 % del día 02/08/2020
  • 48 - 48,4 % del día 01/08/2020
  • 49 - 48,4 % del día 31/07/2020
  • 50 - 48,4 % del día 30/07/2020
  • 51 - 48,4 % del día 29/07/2020
  • 52 - 48,4 % del día 28/07/2020
  • 53 - 48,4 % del día 27/07/2020
  • 54 - 48,4 % del día 26/07/2020
  • 55 - 48,4 % del día 25/07/2020
  • 56 - 48,4 % del día 24/07/2020
  • 57 - 48,4 % del día 23/07/2020
  • 58 - 49,1 % del día 22/07/2020
  • 59 - 50,1 % del día 21/07/2020
  • 60 - 50,9 % del día 20/07/2020

||Volver al inicio de la página||


Humedad del suelo mínima

  • 1 - 46,5 % del día 17/09/2020
  • 2 - 46,5 % del día 16/09/2020
  • 3 - 46,5 % del día 15/09/2020
  • 4 - 46,5 % del día 14/09/2020
  • 5 - 46,5 % del día 13/09/2020
  • 6 - 46,5 % del día 12/09/2020
  • 7 - 46,5 % del día 11/09/2020
  • 8 - 46,5 % del día 10/09/2020
  • 9 - 46,5 % del día 09/09/2020
  • 10 - 46,5 % del día 08/09/2020
  • 11 - 46,5 % del día 07/09/2020
  • 12 - 46,5 % del día 06/09/2020
  • 13 - 46,5 % del día 05/09/2020
  • 14 - 46,5 % del día 04/09/2020
  • 15 - 46,5 % del día 03/09/2020
  • 16 - 46,5 % del día 02/09/2020
  • 17 - 46,5 % del día 01/09/2020
  • 18 - 46,5 % del día 31/08/2020
  • 19 - 46,5 % del día 30/08/2020
  • 20 - 46,5 % del día 29/08/2020
  • 21 - 46,5 % del día 28/08/2020
  • 22 - 46,5 % del día 27/08/2020
  • 23 - 46,5 % del día 26/08/2020
  • 24 - 46,5 % del día 25/08/2020
  • 25 - 46,5 % del día 24/08/2020
  • 26 - 46,5 % del día 23/08/2020
  • 27 - 46,5 % del día 22/08/2020
  • 28 - 46,5 % del día 21/08/2020
  • 29 - 46,5 % del día 20/08/2020
  • 30 - 46,5 % del día 19/08/2020
  • 31 - 46,5 % del día 18/08/2020
  • 32 - 46,5 % del día 17/08/2020
  • 33 - 46,5 % del día 16/08/2020
  • 34 - 46,5 % del día 15/08/2020
  • 35 - 46,5 % del día 14/08/2020
  • 36 - 46,5 % del día 13/08/2020
  • 37 - 46,5 % del día 12/08/2020
  • 38 - 46,5 % del día 11/08/2020
  • 39 - 46,5 % del día 10/08/2020
  • 40 - 46,5 % del día 09/08/2020
  • 41 - 46,5 % del día 08/08/2020
  • 42 - 46,5 % del día 07/08/2020
  • 43 - 46,5 % del día 06/08/2020
  • 44 - 46,5 % del día 05/08/2020
  • 45 - 46,5 % del día 04/08/2020
  • 46 - 46,5 % del día 03/08/2020
  • 47 - 46,5 % del día 02/08/2020
  • 48 - 46,5 % del día 01/08/2020
  • 49 - 46,5 % del día 31/07/2020
  • 50 - 46,5 % del día 30/07/2020
  • 51 - 46,5 % del día 29/07/2020
  • 52 - 46,5 % del día 28/07/2020
  • 53 - 46,5 % del día 27/07/2020
  • 54 - 46,5 % del día 26/07/2020
  • 55 - 46,5 % del día 25/07/2020
  • 56 - 46,5 % del día 24/07/2020
  • 57 - 46,5 % del día 23/07/2020
  • 58 - 47,2 % del día 22/07/2020
  • 59 - 47,9 % del día 21/07/2020
  • 60 - 48,8 % del día 20/07/2020

 

|| Temperatura Ambiente|| Humedad relativa|| Velocidad y dirección del viento|| Precipitación|| Radiación Solar Global y PAR|| Presión atmosférica|| Más información|| Volver a la página principal|| Volver al inicio de la página||


Estación Meteorológica de la Universidad de Murcia
http://estacion.um.es/
Informacion actualizada a: 19/09/2020 a las 17:01:00